createdAt,value
2019-05-05T00:01:58.323Z,12.84
2019-05-05T00:04:49.976Z,13.41
2019-05-05T00:07:20.053Z,13.92
2019-05-05T00:09:47.807Z,13.96
2019-05-05T00:12:29.541Z,13.92
2019-05-05T00:15:15.482Z,13.88
2019-05-05T00:17:45.028Z,13.53
2019-05-05T00:20:14.484Z,13.60
2019-05-05T00:22:54.620Z,14.14
2019-05-05T00:25:24.840Z,14.13
2019-05-05T00:27:52.064Z,14.00
2019-05-05T00:30:19.804Z,13.95
2019-05-05T00:32:47.538Z,14.16
2019-05-05T00:35:15.363Z,14.42
2019-05-05T00:37:44.949Z,14.41
2019-05-05T00:40:14.215Z,14.39
2019-05-05T00:42:42.069Z,14.35
2019-05-05T00:45:09.848Z,14.19
2019-05-05T00:48:11.754Z,14.09
2019-05-05T00:50:39.561Z,14.14
2019-05-05T00:53:07.370Z,14.38
2019-05-05T00:55:35.131Z,14.40
2019-05-05T00:58:05.125Z,14.20
2019-05-05T01:00:44.430Z,14.02
2019-05-05T01:03:12.621Z,13.99
2019-05-05T01:06:05.633Z,13.74
2019-05-05T01:08:35.234Z,13.89
2019-05-05T01:11:04.119Z,14.13
2019-05-05T01:13:34.928Z,14.30
2019-05-05T01:16:04.771Z,14.23
2019-05-05T01:18:34.980Z,14.11
2019-05-05T01:21:04.392Z,13.80
2019-05-05T01:23:31.712Z,14.11
2019-05-05T01:25:59.412Z,13.96
2019-05-05T01:28:27.254Z,13.95
2019-05-05T01:31:09.716Z,13.71
2019-05-05T01:33:44.791Z,13.77
2019-05-05T01:36:12.331Z,13.83
2019-05-05T01:38:48.450Z,13.82
2019-05-05T01:41:22.934Z,13.86
2019-05-05T01:43:50.647Z,13.93
2019-05-05T01:46:18.387Z,13.86
2019-05-05T01:48:46.130Z,13.78
2019-05-05T01:51:14.345Z,13.73
2019-05-05T01:53:44.145Z,13.84
2019-05-05T01:56:24.773Z,13.76
2019-05-05T01:58:54.599Z,13.82
2019-05-05T02:01:22.155Z,13.63
2019-05-05T02:03:49.899Z,13.54
2019-05-05T02:06:17.628Z,13.41
2019-05-05T02:08:45.562Z,13.33
2019-05-05T02:11:15.489Z,13.34
2019-05-05T02:13:44.970Z,13.60
2019-05-05T02:16:12.271Z,13.54
2019-05-05T02:18:40.031Z,13.46
2019-05-05T02:21:08.083Z,13.61
2019-05-05T02:23:35.948Z,13.64
2019-05-05T02:26:04.626Z,13.74
2019-05-05T02:28:51.659Z,13.53
2019-05-05T02:31:28.697Z,13.56
2019-05-05T02:33:57.035Z,13.55
2019-05-05T02:36:25.788Z,13.35
2019-05-05T02:38:56.644Z,13.30
2019-05-05T02:41:25.475Z,13.32
2019-05-05T02:43:55.486Z,13.38
2019-05-05T02:49:22.195Z,13.23
2019-05-05T02:51:49.991Z,13.30
2019-05-05T02:54:18.126Z,13.20
2019-05-05T02:56:47.701Z,13.39
2019-05-05T02:59:19.933Z,12.96
2019-05-05T03:01:58.208Z,13.50
2019-05-05T03:04:26.018Z,13.20
2019-05-05T03:06:54.233Z,13.28
2019-05-05T03:09:24.225Z,13.16
2019-05-05T03:11:55.230Z,13.11
2019-05-05T03:14:23.683Z,13.13
2019-05-05T03:16:54.047Z,13.16
2019-05-05T03:19:23.443Z,13.18
2019-05-05T03:21:50.819Z,13.14
2019-05-05T03:24:18.568Z,13.13
2019-05-05T03:26:46.422Z,13.29
2019-05-05T03:29:17.697Z,13.18
2019-05-05T03:31:46.098Z,13.39
2019-05-05T03:34:16.430Z,13.21
2019-05-05T03:36:44.185Z,13.35
2019-05-05T03:39:17.439Z,12.73
2019-05-05T03:41:54.374Z,13.07
2019-05-05T03:44:28.551Z,13.04
2019-05-05T03:46:56.401Z,13.03
2019-05-05T03:49:27.329Z,13.00
2019-05-05T03:51:55.201Z,12.98
2019-05-05T03:54:23.885Z,13.01
2019-05-05T03:57:25.015Z,12.83
2019-05-05T03:59:54.587Z,13.04
2019-05-05T04:02:51.104Z,12.82
2019-05-05T04:05:24.236Z,12.84
2019-05-05T04:07:51.997Z,12.76
2019-05-05T04:10:19.907Z,12.49
2019-05-05T04:12:47.693Z,12.61
2019-05-05T04:15:15.440Z,12.82
2019-05-05T04:17:57.432Z,12.99
2019-05-05T04:20:53.515Z,12.53
2019-05-05T04:23:21.312Z,12.59
2019-05-05T04:25:49.079Z,12.26
2019-05-05T04:28:16.850Z,12.88
2019-05-05T04:30:44.642Z,12.60
2019-05-05T04:33:14.190Z,12.29
2019-05-05T04:35:41.935Z,12.40
2019-05-05T04:38:13.919Z,12.28
2019-05-05T04:40:58.068Z,11.31
2019-05-05T04:43:31.383Z,12.40
2019-05-05T04:46:02.143Z,11.98
2019-05-05T04:48:37.037Z,12.20
2019-05-05T04:51:10.074Z,11.86
2019-05-05T04:53:56.026Z,12.11
2019-05-05T04:56:30.033Z,11.93
2019-05-05T04:58:57.994Z,11.83
2019-05-05T05:01:27.672Z,12.01
2019-05-05T05:04:13.742Z,12.10
2019-05-05T05:06:47.528Z,12.36
2019-05-05T05:09:15.306Z,12.20
2019-05-05T05:11:44.322Z,12.15
2019-05-05T05:14:14.231Z,12.30
2019-05-05T05:16:43.605Z,12.23
2019-05-05T05:19:11.244Z,12.35
2019-05-05T05:21:39.016Z,12.67
2019-05-05T05:24:06.836Z,12.79
2019-05-05T05:26:34.598Z,13.04
2019-05-05T05:29:04.356Z,13.48
2019-05-05T05:31:33.632Z,13.29
2019-05-05T05:34:01.584Z,13.62
2019-05-05T05:37:38.957Z,13.31
2019-05-05T05:44:33.827Z,13.03
2019-05-05T05:51:04.224Z,13.78
2019-05-05T06:00:09.966Z,14.17
2019-05-05T06:02:37.809Z,14.07
2019-05-05T06:05:05.621Z,14.29
2019-05-05T06:07:33.663Z,14.71
2019-05-05T06:10:03.565Z,14.61
2019-05-05T06:12:31.087Z,14.64
2019-05-05T06:14:58.938Z,14.72
2019-05-05T06:17:26.705Z,14.66
2019-05-05T06:19:54.484Z,14.77
2019-05-05T06:22:29.238Z,14.83
2019-05-05T06:24:55.912Z,14.68
2019-05-05T06:27:44.448Z,14.23
2019-05-05T06:30:13.680Z,14.55
2019-05-05T06:32:43.662Z,14.62
2019-05-05T06:35:11.212Z,14.71
2019-05-05T06:37:43.507Z,14.74
2019-05-05T06:40:13.913Z,14.68
2019-05-05T06:42:59.542Z,14.52
2019-05-05T06:45:35.269Z,15.12
2019-05-05T06:48:04.318Z,14.87
2019-05-05T06:50:32.201Z,14.70
2019-05-05T06:52:59.953Z,14.72
2019-05-05T06:55:27.746Z,14.76
2019-05-05T06:57:55.612Z,14.73
2019-05-05T07:00:24.186Z,14.68
2019-05-05T07:02:54.072Z,14.69
2019-05-05T07:05:23.535Z,14.83
2019-05-05T07:07:51.399Z,14.63
2019-05-05T07:10:19.237Z,14.72
2019-05-05T07:12:47.060Z,14.76
2019-05-05T07:15:19.388Z,14.77
2019-05-05T07:17:44.616Z,14.84
2019-05-05T07:20:13.585Z,14.55
2019-05-05T07:22:55.710Z,14.98
2019-05-05T07:25:11.224Z,15.05
2019-05-05T07:27:39.088Z,15.14
2019-05-05T07:30:06.876Z,15.04
2019-05-05T07:32:34.820Z,15.25
2019-05-05T07:35:28.102Z,15.15
2019-05-05T07:37:55.934Z,15.10
2019-05-05T07:40:27.547Z,15.15
2019-05-05T07:42:55.349Z,15.44
2019-05-05T07:45:25.750Z,15.14
2019-05-05T07:47:54.322Z,15.13
2019-05-05T07:50:31.309Z,13.70
2019-05-05T07:52:51.997Z,15.14
2019-05-05T07:55:20.042Z,15.21
2019-05-05T07:57:47.855Z,14.13
2019-05-05T08:00:15.788Z,15.40
2019-05-05T08:02:43.983Z,14.87
2019-05-05T08:05:13.949Z,15.38
2019-05-05T08:07:41.336Z,15.39
2019-05-05T08:10:09.094Z,15.46
2019-05-05T08:12:36.855Z,15.56
2019-05-05T08:15:04.865Z,15.55
2019-05-05T08:17:44.771Z,15.54
2019-05-05T08:20:23.835Z,15.73
2019-05-05T08:22:53.559Z,15.75
2019-05-05T08:25:39.856Z,15.57
2019-05-05T08:28:12.156Z,15.74
2019-05-05T08:31:04.968Z,15.73
2019-05-05T08:33:33.582Z,15.83
2019-05-05T08:36:04.766Z,15.71
2019-05-05T08:38:34.804Z,15.73
2019-05-05T08:41:04.552Z,15.94
2019-05-05T08:43:34.574Z,15.78
2019-05-05T08:52:50.144Z,15.91
2019-05-05T09:49:29.326Z,16.68
2019-05-05T09:51:57.261Z,16.80
2019-05-05T09:54:25.085Z,16.97
2019-05-05T09:57:24.238Z,16.97
2019-05-05T09:59:54.307Z,17.02
2019-05-05T10:02:24.025Z,16.97
2019-05-05T10:04:52.080Z,17.06
2019-05-05T10:07:24.235Z,16.99
2019-05-05T10:09:53.730Z,17.43
2019-05-05T10:12:24.363Z,17.69
2019-05-05T10:15:15.311Z,17.47
2019-05-05T10:18:14.131Z,17.65
2019-05-05T10:20:42.102Z,17.37
2019-05-05T10:26:10.057Z,17.79
2019-05-05T10:32:09.994Z,17.55
2019-05-05T10:34:39.060Z,17.42
2019-05-05T10:37:07.533Z,17.82
2019-05-05T10:39:40.938Z,17.25
2019-05-05T10:42:08.985Z,17.49
2019-05-05T10:44:36.807Z,18.29
2019-05-05T10:47:05.780Z,17.93
2019-05-05T10:49:44.155Z,17.74
2019-05-05T10:52:14.037Z,18.15
2019-05-05T10:54:44.916Z,18.16
2019-05-05T10:57:11.209Z,17.99
2019-05-05T10:59:38.988Z,18.24
2019-05-05T11:02:06.993Z,17.85
2019-05-05T11:04:34.819Z,17.56
2019-05-05T11:07:04.156Z,18.22
2019-05-05T11:09:33.725Z,17.87
2019-05-05T11:12:01.689Z,17.50
2019-05-05T11:14:29.506Z,17.81
2019-05-05T11:16:57.268Z,17.43
2019-05-05T11:19:25.085Z,17.88
2019-05-05T11:21:54.026Z,17.86
2019-05-05T11:24:29.340Z,17.90
2019-05-05T11:26:57.274Z,18.02
2019-05-05T11:29:25.429Z,18.35
2019-05-05T11:31:53.741Z,18.01
2019-05-05T11:34:25.338Z,18.39
2019-05-05T11:37:15.925Z,18.29
2019-05-05T11:39:44.547Z,18.64
2019-05-05T11:42:14.603Z,18.34
2019-05-05T11:44:53.884Z,18.42
2019-05-05T11:47:37.683Z,18.83
2019-05-05T11:50:13.950Z,18.64
2019-05-05T11:52:44.483Z,18.14
2019-05-05T11:55:14.741Z,18.23
2019-05-05T11:57:43.669Z,18.36
2019-05-05T12:00:11.542Z,18.61
2019-05-05T12:02:40.178Z,18.41
2019-05-05T12:05:09.415Z,18.82
2019-05-05T12:08:06.271Z,18.63
2019-05-05T12:10:51.031Z,18.66
2019-05-05T12:13:18.825Z,19.32
2019-05-05T12:15:48.804Z,19.58
2019-05-05T12:18:26.407Z,19.46
2019-05-05T12:20:54.521Z,19.24
2019-05-05T12:23:22.386Z,19.34
2019-05-05T12:26:04.698Z,19.22
2019-05-05T12:28:36.450Z,19.43
2019-05-05T12:31:06.000Z,19.85
2019-05-05T12:33:33.928Z,19.65
2019-05-05T12:36:01.877Z,19.56
2019-05-05T12:38:29.727Z,19.43
2019-05-05T12:40:57.677Z,19.56
2019-05-05T12:43:25.550Z,19.39
2019-05-05T12:46:04.460Z,19.43
2019-05-05T12:48:34.543Z,19.31
2019-05-05T12:51:04.196Z,19.72
2019-05-05T12:53:32.093Z,19.31
2019-05-05T12:55:59.988Z,19.59
2019-05-05T12:58:27.791Z,19.90
2019-05-05T13:01:08.676Z,19.48
2019-05-05T13:03:36.525Z,19.56
2019-05-05T13:06:04.409Z,19.88
2019-05-05T13:08:34.019Z,19.41
2019-05-05T13:11:03.956Z,19.49
2019-05-05T13:13:31.692Z,19.46
2019-05-05T13:15:59.681Z,19.18
2019-05-05T13:18:27.880Z,19.84
2019-05-05T13:21:05.288Z,19.83
2019-05-05T13:23:58.428Z,19.44
2019-05-05T13:26:34.844Z,19.81
2019-05-05T13:29:11.402Z,19.64
2019-05-05T13:31:39.394Z,19.61
2019-05-05T13:34:07.284Z,19.65
2019-05-05T13:36:35.092Z,19.57
2019-05-05T13:39:04.674Z,19.66
2019-05-05T13:41:33.996Z,19.69
2019-05-05T13:44:04.497Z,19.04
2019-05-05T13:46:33.888Z,19.22
2019-05-05T13:49:28.934Z,19.58
2019-05-05T13:52:01.739Z,19.78
2019-05-05T13:54:29.490Z,19.50
2019-05-05T13:56:57.265Z,19.51
2019-05-05T13:59:26.321Z,19.55
2019-05-05T14:02:06.165Z,19.33
2019-05-05T14:04:34.411Z,19.59
2019-05-05T14:07:04.019Z,19.61
2019-05-05T14:09:32.272Z,19.05
2019-05-05T14:12:03.972Z,19.60
2019-05-05T14:14:33.498Z,19.82
2019-05-05T14:17:04.089Z,19.68
2019-05-05T14:19:34.089Z,19.64
2019-05-05T14:22:28.002Z,19.86
2019-05-05T14:25:01.009Z,19.97
2019-05-05T14:27:28.908Z,19.68
2019-05-05T14:30:11.265Z,19.75
2019-05-05T14:32:39.732Z,19.60
2019-05-05T14:35:35.531Z,19.47
2019-05-05T14:38:06.572Z,19.64
2019-05-05T14:40:37.285Z,19.51
2019-05-05T14:43:05.281Z,19.37
2019-05-05T14:45:34.007Z,19.42
2019-05-05T14:48:07.385Z,19.72
2019-05-05T14:50:35.716Z,19.46
2019-05-05T14:53:27.715Z,19.34
2019-05-05T14:55:55.913Z,19.57
2019-05-05T14:58:23.783Z,19.54
2019-05-05T15:00:51.586Z,19.52
2019-05-05T15:03:19.487Z,19.56
2019-05-05T15:06:38.348Z,19.57
2019-05-05T15:09:44.542Z,19.51
2019-05-05T15:12:23.720Z,19.65
2019-05-05T15:14:51.977Z,19.43
2019-05-05T15:17:19.903Z,19.54
2019-05-05T15:19:47.934Z,19.63
2019-05-05T15:22:15.920Z,19.61
2019-05-05T15:24:44.179Z,19.55
2019-05-05T15:27:12.013Z,19.66
2019-05-05T15:29:39.857Z,19.91
2019-05-05T15:32:07.707Z,19.74
2019-05-05T15:34:35.731Z,19.55
2019-05-05T15:37:03.895Z,19.58
2019-05-05T15:39:33.641Z,19.47
2019-05-05T15:44:57.129Z,19.61
2019-05-05T15:50:40.858Z,19.46
2019-05-05T15:53:10.969Z,19.73
2019-05-05T15:55:39.533Z,19.65
2019-05-05T15:58:09.724Z,19.56
2019-05-05T16:00:48.662Z,19.61
2019-05-05T16:03:17.282Z,19.60
2019-05-05T16:05:45.675Z,19.46
2019-05-05T16:08:15.899Z,19.68
2019-05-05T16:10:46.633Z,19.66
2019-05-05T16:13:35.099Z,19.50
2019-05-05T16:16:14.681Z,19.39
2019-05-05T16:19:05.772Z,19.56
2019-05-05T16:21:46.018Z,19.40
2019-05-05T16:24:20.019Z,19.27
2019-05-05T16:32:59.677Z,19.26
2019-05-05T16:35:27.500Z,19.59
2019-05-05T16:37:55.627Z,19.43
2019-05-05T16:40:25.871Z,19.42
2019-05-05T16:42:54.393Z,19.07
2019-05-05T16:45:24.549Z,19.41
2019-05-05T16:47:51.853Z,19.51
2019-05-05T16:50:22.141Z,19.36
2019-05-05T16:52:56.604Z,19.52
2019-05-05T16:55:41.239Z,19.04
2019-05-05T16:58:09.134Z,19.40
2019-05-05T17:00:38.551Z,19.16
2019-05-05T17:03:06.449Z,19.48
2019-05-05T17:05:34.654Z,19.71
2019-05-05T17:08:04.597Z,18.82
2019-05-05T17:10:34.230Z,19.50
2019-05-05T17:13:11.007Z,19.60
2019-05-05T17:15:48.308Z,19.44
2019-05-05T17:18:36.262Z,19.41
2019-05-05T17:21:17.019Z,19.18
2019-05-05T17:23:44.896Z,19.45
2019-05-05T17:26:14.321Z,19.39
2019-05-05T17:28:46.228Z,19.51
2019-05-05T17:31:40.903Z,19.37
2019-05-05T17:34:16.265Z,18.11
2019-05-05T17:36:45.277Z,19.56
2019-05-05T17:39:13.840Z,19.26
2019-05-05T17:42:00.918Z,19.16
2019-05-05T17:45:04.144Z,19.46
2019-05-05T17:47:40.204Z,19.42
2019-05-05T17:50:37.288Z,19.43
2019-05-05T17:53:27.565Z,19.54
2019-05-05T17:55:59.502Z,19.55
2019-05-05T17:58:27.809Z,19.62
2019-05-05T18:00:58.261Z,19.49
2019-05-05T18:03:37.713Z,19.56
2019-05-05T18:06:19.804Z,19.46
2019-05-05T18:09:05.566Z,19.32
2019-05-05T18:11:47.804Z,19.44
2019-05-05T18:14:56.229Z,18.94
2019-05-05T18:17:26.107Z,18.86
2019-05-05T18:19:54.077Z,18.99
2019-05-05T18:25:47.153Z,18.95
2019-05-05T18:28:19.698Z,18.55
2019-05-05T18:30:44.699Z,18.45
2019-05-05T18:33:13.691Z,18.93
2019-05-05T18:35:41.596Z,19.07
2019-05-05T18:38:09.335Z,19.23
2019-05-05T18:40:37.090Z,19.35
2019-05-05T18:43:09.354Z,19.04
2019-05-05T18:45:37.209Z,19.35
2019-05-05T18:48:19.112Z,19.29
2019-05-05T18:50:47.199Z,19.35
2019-05-05T18:53:14.962Z,19.23
2019-05-05T18:57:24.643Z,19.31
2019-05-05T19:13:56.678Z,19.05
2019-05-05T19:16:25.915Z,18.99
2019-05-05T19:22:13.730Z,18.95
2019-05-05T19:24:41.126Z,19.25
2019-05-05T19:31:26.071Z,19.08
2019-05-05T19:37:26.890Z,19.28
2019-05-05T19:39:56.918Z,19.02
2019-05-05T19:42:24.771Z,18.99
2019-05-05T19:44:54.419Z,18.86
2019-05-05T19:47:24.274Z,18.74
2019-05-05T19:50:36.856Z,18.88
2019-05-05T19:53:06.455Z,18.87
2019-05-05T19:55:36.298Z,18.52
2019-05-05T19:58:04.546Z,18.30
2019-05-05T20:00:34.691Z,18.26
2019-05-05T20:03:05.337Z,18.55
2019-05-05T20:05:34.449Z,18.68
2019-05-05T20:08:03.932Z,18.72
2019-05-05T20:10:50.892Z,18.80
2019-05-05T20:13:18.929Z,18.69
2019-05-05T20:15:56.296Z,18.76
2019-05-05T20:18:24.927Z,17.33
2019-05-05T20:21:03.165Z,18.74
2019-05-05T20:23:24.300Z,18.68
2019-05-05T20:25:53.763Z,18.61
2019-05-05T20:28:24.100Z,18.45
2019-05-05T20:30:54.075Z,18.27
2019-05-05T20:33:28.363Z,18.25
2019-05-05T20:36:03.585Z,18.26
2019-05-05T20:38:59.747Z,18.45
2019-05-05T20:41:27.507Z,18.60
2019-05-05T20:43:55.319Z,18.37
2019-05-05T20:46:23.710Z,18.57
2019-05-05T20:48:54.389Z,18.51
2019-05-05T20:51:24.274Z,18.53
2019-05-05T20:53:54.155Z,18.58
2019-05-05T20:56:21.755Z,18.71
2019-05-05T20:58:49.530Z,18.32
2019-05-05T21:01:17.246Z,18.36
2019-05-05T21:03:44.987Z,18.67
2019-05-05T21:06:13.845Z,18.73
2019-05-05T21:08:43.808Z,18.66
2019-05-05T21:11:11.311Z,18.64
2019-05-05T21:13:39.078Z,18.85
2019-05-05T21:16:06.839Z,18.97
2019-05-05T21:18:34.865Z,19.01
2019-05-05T21:21:04.665Z,18.99
2019-05-05T21:23:35.935Z,18.84
2019-05-05T21:26:06.065Z,18.89
2019-05-05T21:28:35.446Z,18.95
2019-05-05T21:31:04.805Z,18.93
2019-05-05T21:33:34.797Z,18.93
2019-05-05T21:36:04.299Z,18.87
2019-05-05T21:38:31.694Z,18.88
2019-05-05T21:40:59.470Z,18.96
2019-05-05T21:43:27.178Z,18.89
2019-05-05T21:45:55.251Z,18.93
2019-05-05T21:48:24.317Z,18.80
2019-05-05T21:50:58.476Z,18.87
2019-05-05T21:53:35.922Z,18.81
2019-05-05T21:56:26.453Z,18.64
2019-05-05T21:58:54.811Z,18.87
2019-05-05T22:01:26.938Z,18.92
2019-05-05T22:03:53.795Z,18.84
2019-05-05T22:06:23.970Z,18.73
2019-05-05T22:08:53.732Z,18.66
2019-05-05T22:11:21.259Z,18.23
2019-05-05T22:13:49.011Z,18.67
2019-05-05T22:16:16.744Z,18.73
2019-05-05T22:18:56.766Z,18.46
2019-05-05T22:21:54.507Z,18.63
2019-05-05T22:24:23.188Z,18.49
2019-05-05T22:26:50.955Z,18.45
2019-05-05T22:29:18.689Z,18.53
2019-05-05T22:31:46.473Z,18.48
2019-05-05T22:34:14.694Z,18.22
2019-05-05T22:36:52.925Z,18.43
2019-05-05T22:39:18.678Z,18.46
2019-05-05T22:41:46.404Z,18.36
2019-05-05T22:44:14.252Z,18.45
2019-05-05T22:46:42.027Z,18.41
2019-05-05T22:49:10.127Z,18.54
2019-05-05T22:51:38.225Z,18.42
2019-05-05T22:54:06.054Z,18.39
2019-05-05T22:56:34.219Z,18.47
2019-05-05T22:59:04.101Z,18.49
2019-05-05T23:01:54.042Z,18.48
2019-05-05T23:04:43.691Z,18.16
2019-05-05T23:07:24.815Z,18.42
2019-05-05T23:09:53.886Z,18.30
2019-05-05T23:12:21.803Z,18.21
2019-05-05T23:14:49.541Z,18.22
2019-05-05T23:17:45.589Z,18.22
2019-05-05T23:20:28.986Z,18.18
2019-05-05T23:23:09.803Z,18.26
2019-05-05T23:25:40.103Z,18.04
2019-05-05T23:28:07.830Z,18.06
2019-05-05T23:30:41.590Z,17.33
2019-05-05T23:33:05.076Z,17.99
2019-05-05T23:35:43.693Z,17.90
2019-05-05T23:38:11.651Z,17.90
2019-05-05T23:40:39.405Z,17.80
2019-05-05T23:43:07.395Z,17.99
2019-05-05T23:45:35.135Z,17.97
2019-05-05T23:48:03.719Z,17.78
2019-05-05T23:50:33.670Z,17.94
2019-05-05T23:53:01.034Z,17.90
2019-05-05T23:55:28.763Z,17.51
2019-05-05T23:57:56.506Z,18.01
